sensor_id;sensor_type;location;lat;lon;timestamp;pressure;altitude;pressure_sealevel;temperature;humidity
55932;BME280;41837;55.700;37.984;2023-07-31T00:02:09;99347.69;;;11.62;100.00
55932;BME280;41837;55.700;37.984;2023-07-31T00:04:34;99350.47;;;11.59;100.00
55932;BME280;41837;55.700;37.984;2023-07-31T00:07:01;99353.78;;;11.63;100.00
55932;BME280;41837;55.700;37.984;2023-07-31T00:09:30;99351.84;;;11.66;100.00
55932;BME280;41837;55.700;37.984;2023-07-31T00:11:56;99347.97;;;11.73;100.00
55932;BME280;41837;55.700;37.984;2023-07-31T00:14:22;99346.25;;;11.72;100.00
55932;BME280;41837;55.700;37.984;2023-07-31T00:16:48;99345.09;;;11.78;100.00
55932;BME280;41837;55.700;37.984;2023-07-31T00:19:14;99346.94;;;11.76;100.00
55932;BME280;41837;55.700;37.984;2023-07-31T00:21:40;99344.31;;;11.76;100.00
55932;BME280;41837;55.700;37.984;2023-07-31T00:24:07;99333.09;;;11.74;100.00
55932;BME280;41837;55.700;37.984;2023-07-31T00:26:33;99341.22;;;11.69;100.00
55932;BME280;41837;55.700;37.984;2023-07-31T00:29:00;99341.59;;;11.46;100.00
55932;BME280;41837;55.700;37.984;2023-07-31T00:31:26;99349.84;;;11.38;100.00
55932;BME280;41837;55.700;37.984;2023-07-31T00:33:52;99356.94;;;11.36;100.00
55932;BME280;41837;55.700;37.984;2023-07-31T00:36:18;99350.25;;;11.30;100.00
55932;BME280;41837;55.700;37.984;2023-07-31T00:38:44;99354.72;;;11.28;100.00
55932;BME280;41837;55.700;37.984;2023-07-31T00:41:11;99352.16;;;11.27;100.00
55932;BME280;41837;55.700;37.984;2023-07-31T00:43:37;99355.72;;;11.26;100.00
55932;BME280;41837;55.700;37.984;2023-07-31T00:46:03;99356.50;;;11.28;100.00
55932;BME280;41837;55.700;37.984;2023-07-31T00:48:30;99357.25;;;11.30;100.00
55932;BME280;41837;55.700;37.984;2023-07-31T00:50:57;99345.53;;;11.37;100.00
55932;BME280;41837;55.700;37.984;2023-07-31T00:53:24;99351.19;;;11.45;100.00
55932;BME280;41837;55.700;37.984;2023-07-31T00:55:52;99352.81;;;11.48;100.00
55932;BME280;41837;55.700;37.984;2023-07-31T00:58:19;99347.97;;;11.40;100.00
55932;BME280;41837;55.700;37.984;2023-07-31T01:00:46;99347.81;;;11.43;100.00
55932;BME280;41837;55.700;37.984;2023-07-31T01:03:12;99356.28;;;11.48;100.00
55932;BME280;41837;55.700;37.984;2023-07-31T01:08:24;99351.72;;;11.52;100.00
55932;BME280;41837;55.700;37.984;2023-07-31T01:11:02;99347.44;;;11.51;100.00
55932;BME280;41837;55.700;37.984;2023-07-31T01:13:31;99345.06;;;11.46;100.00
55932;BME280;41837;55.700;37.984;2023-07-31T01:15:57;99350.66;;;11.56;100.00
55932;BME280;41837;55.700;37.984;2023-07-31T01:18:24;99350.81;;;11.53;100.00
55932;BME280;41837;55.700;37.984;2023-07-31T01:21:07;99349.03;;;11.53;100.00
55932;BME280;41837;55.700;37.984;2023-07-31T01:26:49;99358.50;;;11.56;100.00
55932;BME280;41837;55.700;37.984;2023-07-31T01:29:35;99360.84;;;11.45;100.00
55932;BME280;41837;55.700;37.984;2023-07-31T01:32:06;99358.91;;;11.48;100.00
55932;BME280;41837;55.700;37.984;2023-07-31T01:34:34;99354.50;;;11.49;100.00
55932;BME280;41837;55.700;37.984;2023-07-31T01:37:01;99358.06;;;11.48;100.00
55932;BME280;41837;55.700;37.984;2023-07-31T01:39:29;99352.75;;;11.49;100.00
55932;BME280;41837;55.700;37.984;2023-07-31T01:41:55;99357.91;;;11.51;100.00
55932;BME280;41837;55.700;37.984;2023-07-31T01:44:21;99354.84;;;11.58;100.00
55932;BME280;41837;55.700;37.984;2023-07-31T01:46:48;99358.06;;;11.64;100.00
55932;BME280;41837;55.700;37.984;2023-07-31T01:49:14;99357.84;;;11.68;100.00
55932;BME280;41837;55.700;37.984;2023-07-31T01:51:41;99364.53;;;11.90;100.00
55932;BME280;41837;55.700;37.984;2023-07-31T01:54:07;99361.06;;;12.67;100.00
55932;BME280;41837;55.700;37.984;2023-07-31T01:56:34;99349.22;;;13.35;100.00
55932;BME280;41837;55.700;37.984;2023-07-31T01:59:00;99331.66;;;13.79;100.00
55932;BME280;41837;55.700;37.984;2023-07-31T02:01:26;99323.34;;;13.99;100.00
55932;BME280;41837;55.700;37.984;2023-07-31T02:03:52;99316.88;;;14.60;100.00
55932;BME280;41837;55.700;37.984;2023-07-31T02:06:21;99305.44;;;14.99;100.00
55932;BME280;41837;55.700;37.984;2023-07-31T02:08:48;99292.94;;;15.53;100.00
55932;BME280;41837;55.700;37.984;2023-07-31T02:11:15;99283.38;;;15.89;100.00
55932;BME280;41837;55.700;37.984;2023-07-31T02:13:42;99282.13;;;16.30;100.00
55932;BME280;41837;55.700;37.984;2023-07-31T02:16:08;99279.78;;;16.38;100.00
55932;BME280;41837;55.700;37.984;2023-07-31T02:18:35;99272.53;;;16.64;100.00
55932;BME280;41837;55.700;37.984;2023-07-31T02:21:02;99276.56;;;17.04;100.00
55932;BME280;41837;55.700;37.984;2023-07-31T02:23:28;99268.53;;;17.39;100.00
55932;BME280;41837;55.700;37.984;2023-07-31T02:25:55;99265.47;;;17.66;100.00
55932;BME280;41837;55.700;37.984;2023-07-31T02:28:21;99260.59;;;17.62;100.00
55932;BME280;41837;55.700;37.984;2023-07-31T02:30:47;99260.34;;;17.42;100.00
55932;BME280;41837;55.700;37.984;2023-07-31T02:33:16;99266.75;;;17.83;100.00
55932;BME280;41837;55.700;37.984;2023-07-31T02:35:42;99269.00;;;17.44;100.00
55932;BME280;41837;55.700;37.984;2023-07-31T02:38:08;99267.22;;;18.11;100.00
55932;BME280;41837;55.700;37.984;2023-07-31T02:40:35;99262.00;;;18.63;100.00
55932;BME280;41837;55.700;37.984;2023-07-31T02:43:01;99246.47;;;19.22;100.00
55932;BME280;41837;55.700;37.984;2023-07-31T02:45:27;99249.25;;;19.20;100.00
55932;BME280;41837;55.700;37.984;2023-07-31T02:47:53;99242.22;;;19.50;100.00
55932;BME280;41837;55.700;37.984;2023-07-31T02:50:20;99239.69;;;20.08;100.00
55932;BME280;41837;55.700;37.984;2023-07-31T02:52:46;99251.81;;;20.30;100.00
55932;BME280;41837;55.700;37.984;2023-07-31T02:55:12;99245.78;;;20.38;100.00
55932;BME280;41837;55.700;37.984;2023-07-31T02:57:39;99241.47;;;20.47;100.00
55932;BME280;41837;55.700;37.984;2023-07-31T03:00:07;99242.97;;;20.79;100.00
55932;BME280;41837;55.700;37.984;2023-07-31T03:02:34;99235.63;;;21.00;98.81
55932;BME280;41837;55.700;37.984;2023-07-31T03:05:00;99236.19;;;20.94;98.60
55932;BME280;41837;55.700;37.984;2023-07-31T03:07:30;99239.16;;;20.91;98.44
55932;BME280;41837;55.700;37.984;2023-07-31T03:09:56;99235.22;;;20.95;96.57
55932;BME280;41837;55.700;37.984;2023-07-31T03:12:23;99231.75;;;21.78;93.94
55932;BME280;41837;55.700;37.984;2023-07-31T03:14:49;99220.56;;;22.28;89.41
55932;BME280;41837;55.700;37.984;2023-07-31T03:17:15;99225.34;;;22.61;85.86
55932;BME280;41837;55.700;37.984;2023-07-31T03:19:41;99222.28;;;22.82;85.97
55932;BME280;41837;55.700;37.984;2023-07-31T03:22:07;99213.41;;;22.11;89.23
55932;BME280;41837;55.700;37.984;2023-07-31T03:24:33;99220.69;;;21.55;91.13
55932;BME280;41837;55.700;37.984;2023-07-31T03:27:00;99215.72;;;22.06;88.73
55932;BME280;41837;55.700;37.984;2023-07-31T03:29:27;99219.06;;;22.70;85.00
55932;BME280;41837;55.700;37.984;2023-07-31T03:31:53;99219.59;;;23.42;82.44
55932;BME280;41837;55.700;37.984;2023-07-31T03:34:19;99225.94;;;24.09;79.58
55932;BME280;41837;55.700;37.984;2023-07-31T03:36:45;99227.91;;;23.39;81.35
55932;BME280;41837;55.700;37.984;2023-07-31T03:39:12;99225.41;;;23.38;81.74
55932;BME280;41837;55.700;37.984;2023-07-31T03:41:39;99230.47;;;23.65;79.86
55932;BME280;41837;55.700;37.984;2023-07-31T03:44:04;99226.94;;;23.49;80.04
55932;BME280;41837;55.700;37.984;2023-07-31T03:46:30;99225.44;;;24.05;79.49
55932;BME280;41837;55.700;37.984;2023-07-31T03:48:56;99214.91;;;24.28;76.47
55932;BME280;41837;55.700;37.984;2023-07-31T03:51:23;99217.72;;;25.24;69.86
55932;BME280;41837;55.700;37.984;2023-07-31T03:53:49;99219.25;;;24.46;73.29
55932;BME280;41837;55.700;37.984;2023-07-31T03:56:16;99215.50;;;24.80;69.76
55932;BME280;41837;55.700;37.984;2023-07-31T03:58:42;99212.16;;;24.94;67.56
55932;BME280;41837;55.700;37.984;2023-07-31T04:01:08;99210.25;;;24.22;67.89
55932;BME280;41837;55.700;37.984;2023-07-31T04:03:35;99209.03;;;24.66;69.27
55932;BME280;41837;55.700;37.984;2023-07-31T04:06:01;99211.56;;;24.43;65.64
55932;BME280;41837;55.700;37.984;2023-07-31T04:08:27;99202.81;;;24.90;66.50
55932;BME280;41837;55.700;37.984;2023-07-31T04:10:54;99205.03;;;24.62;68.25
55932;BME280;41837;55.700;37.984;2023-07-31T04:13:22;99213.81;;;25.43;64.38
55932;BME280;41837;55.700;37.984;2023-07-31T04:15:49;99184.91;;;24.99;64.24
55932;BME280;41837;55.700;37.984;2023-07-31T04:18:20;99208.66;;;25.64;63.67
55932;BME280;41837;55.700;37.984;2023-07-31T04:20:47;99218.84;;;25.69;62.09
55932;BME280;41837;55.700;37.984;2023-07-31T04:23:14;99215.03;;;25.86;60.92
55932;BME280;41837;55.700;37.984;2023-07-31T04:25:40;99218.72;;;25.23;61.36
55932;BME280;41837;55.700;37.984;2023-07-31T04:28:07;99216.47;;;26.43;61.32
55932;BME280;41837;55.700;37.984;2023-07-31T04:30:33;99217.69;;;26.18;61.46
55932;BME280;41837;55.700;37.984;2023-07-31T04:33:00;99216.19;;;26.15;58.31
55932;BME280;41837;55.700;37.984;2023-07-31T04:35:26;99216.75;;;26.11;59.35
55932;BME280;41837;55.700;37.984;2023-07-31T04:37:53;99218.50;;;25.72;59.95
55932;BME280;41837;55.700;37.984;2023-07-31T04:40:19;99219.09;;;25.82;59.91
55932;BME280;41837;55.700;37.984;2023-07-31T04:42:45;99217.47;;;27.10;56.97
55932;BME280;41837;55.700;37.984;2023-07-31T04:45:12;99216.22;;;26.53;55.47
55932;BME280;41837;55.700;37.984;2023-07-31T04:47:39;99210.72;;;26.70;57.11
55932;BME280;41837;55.700;37.984;2023-07-31T04:50:05;99217.72;;;27.15;55.69
55932;BME280;41837;55.700;37.984;2023-07-31T04:52:32;99220.50;;;26.63;56.86
55932;BME280;41837;55.700;37.984;2023-07-31T04:54:59;99219.81;;;26.60;55.09
55932;BME280;41837;55.700;37.984;2023-07-31T04:57:25;99209.69;;;25.63;58.22
55932;BME280;41837;55.700;37.984;2023-07-31T04:59:51;99228.94;;;26.13;56.81
55932;BME280;41837;55.700;37.984;2023-07-31T05:02:18;99226.97;;;27.43;54.56
55932;BME280;41837;55.700;37.984;2023-07-31T05:04:44;99233.88;;;27.67;54.47
55932;BME280;41837;55.700;37.984;2023-07-31T05:07:10;99224.13;;;27.81;51.62
55932;BME280;41837;55.700;37.984;2023-07-31T05:09:37;99222.03;;;27.61;52.12
55932;BME280;41837;55.700;37.984;2023-07-31T05:12:05;99226.88;;;26.61;52.48
55932;BME280;41837;55.700;37.984;2023-07-31T05:14:31;99229.13;;;27.17;52.58
55932;BME280;41837;55.700;37.984;2023-07-31T05:16:58;99220.81;;;28.00;51.21
55932;BME280;41837;55.700;37.984;2023-07-31T05:19:25;99220.88;;;27.49;50.66
55932;BME280;41837;55.700;37.984;2023-07-31T05:21:51;99215.56;;;27.56;51.59
55932;BME280;41837;55.700;37.984;2023-07-31T05:24:18;99218.03;;;27.72;51.28
55932;BME280;41837;55.700;37.984;2023-07-31T05:26:45;99223.41;;;28.37;49.20
55932;BME280;41837;55.700;37.984;2023-07-31T05:29:11;99222.16;;;28.11;51.83
55932;BME280;41837;55.700;37.984;2023-07-31T05:31:37;99212.56;;;27.80;49.03
55932;BME280;41837;55.700;37.984;2023-07-31T05:34:04;99213.31;;;28.17;49.36
55932;BME280;41837;55.700;37.984;2023-07-31T05:36:30;99215.88;;;28.25;48.15
55932;BME280;41837;55.700;37.984;2023-07-31T05:38:57;99220.28;;;28.33;49.03
55932;BME280;41837;55.700;37.984;2023-07-31T05:41:24;99228.56;;;28.10;47.65
55932;BME280;41837;55.700;37.984;2023-07-31T05:43:50;99220.22;;;28.55;48.26
55932;BME280;41837;55.700;37.984;2023-07-31T05:46:17;99229.19;;;28.34;48.25
55932;BME280;41837;55.700;37.984;2023-07-31T05:48:44;99224.28;;;28.65;46.39
55932;BME280;41837;55.700;37.984;2023-07-31T05:51:10;99235.84;;;28.38;46.24
55932;BME280;41837;55.700;37.984;2023-07-31T05:53:36;99226.94;;;28.59;46.58
55932;BME280;41837;55.700;37.984;2023-07-31T05:56:06;99229.72;;;28.51;46.35
55932;BME280;41837;55.700;37.984;2023-07-31T05:58:35;99226.50;;;29.25;44.75
55932;BME280;41837;55.700;37.984;2023-07-31T06:01:02;99223.09;;;29.10;44.47
55932;BME280;41837;55.700;37.984;2023-07-31T06:03:28;99228.94;;;28.85;45.23
55932;BME280;41837;55.700;37.984;2023-07-31T06:05:55;99221.13;;;28.90;44.17
55932;BME280;41837;55.700;37.984;2023-07-31T06:08:21;99225.09;;;29.36;44.73
55932;BME280;41837;55.700;37.984;2023-07-31T06:10:47;99221.78;;;30.09;43.33
55932;BME280;41837;55.700;37.984;2023-07-31T06:13:14;99216.69;;;29.52;43.17
55932;BME280;41837;55.700;37.984;2023-07-31T06:15:41;99229.16;;;28.83;44.80
55932;BME280;41837;55.700;37.984;2023-07-31T06:18:07;99224.00;;;28.89;44.15
55932;BME280;41837;55.700;37.984;2023-07-31T06:20:34;99224.13;;;29.50;44.38
55932;BME280;41837;55.700;37.984;2023-07-31T06:23:00;99226.97;;;30.04;41.72
55932;BME280;41837;55.700;37.984;2023-07-31T06:25:26;99217.81;;;29.85;40.97
55932;BME280;41837;55.700;37.984;2023-07-31T06:27:53;99228.78;;;28.58;42.70
55932;BME280;41837;55.700;37.984;2023-07-31T06:30:19;99224.25;;;29.29;43.39
55932;BME280;41837;55.700;37.984;2023-07-31T06:32:46;99222.53;;;29.76;43.12
55932;BME280;41837;55.700;37.984;2023-07-31T06:35:12;99226.31;;;29.82;43.50
55932;BME280;41837;55.700;37.984;2023-07-31T06:37:39;99222.19;;;29.31;42.87
55932;BME280;41837;55.700;37.984;2023-07-31T06:40:07;99221.44;;;28.74;43.71
55932;BME280;41837;55.700;37.984;2023-07-31T06:42:35;99227.44;;;29.11;42.00
55932;BME280;41837;55.700;37.984;2023-07-31T06:45:02;99230.25;;;29.31;41.22
55932;BME280;41837;55.700;37.984;2023-07-31T06:47:33;99230.00;;;29.67;39.19
55932;BME280;41837;55.700;37.984;2023-07-31T06:49:59;99233.13;;;29.23;40.51
55932;BME280;41837;55.700;37.984;2023-07-31T06:52:26;99230.25;;;29.79;39.74
55932;BME280;41837;55.700;37.984;2023-07-31T06:57:47;99232.63;;;30.36;38.73
55932;BME280;41837;55.700;37.984;2023-07-31T07:00:13;99224.28;;;29.35;40.65
55932;BME280;41837;55.700;37.984;2023-07-31T07:02:40;99231.25;;;28.88;40.14
55932;BME280;41837;55.700;37.984;2023-07-31T07:05:07;99226.66;;;29.58;39.13
55932;BME280;41837;55.700;37.984;2023-07-31T07:07:35;99225.91;;;29.30;39.19
55932;BME280;41837;55.700;37.984;2023-07-31T07:10:01;99231.06;;;29.25;38.69
55932;BME280;41837;55.700;37.984;2023-07-31T07:12:32;99224.06;;;29.30;39.96
55932;BME280;41837;55.700;37.984;2023-07-31T07:15:00;99231.31;;;29.98;39.38
55932;BME280;41837;55.700;37.984;2023-07-31T07:17:28;99235.66;;;29.86;38.12
55932;BME280;41837;55.700;37.984;2023-07-31T07:19:55;99227.72;;;29.23;38.42
55932;BME280;41837;55.700;37.984;2023-07-31T07:22:22;99229.03;;;29.33;38.08
55932;BME280;41837;55.700;37.984;2023-07-31T07:24:49;99226.09;;;28.93;38.71
55932;BME280;41837;55.700;37.984;2023-07-31T07:27:15;99232.91;;;29.24;39.21
55932;BME280;41837;55.700;37.984;2023-07-31T07:29:42;99226.94;;;29.97;38.43
55932;BME280;41837;55.700;37.984;2023-07-31T07:32:08;99230.53;;;30.11;37.39
55932;BME280;41837;55.700;37.984;2023-07-31T07:34:35;99236.03;;;29.28;38.08
55932;BME280;41837;55.700;37.984;2023-07-31T07:37:01;99228.44;;;30.00;39.09
55932;BME280;41837;55.700;37.984;2023-07-31T07:39:27;99232.84;;;29.59;38.08
55932;BME280;41837;55.700;37.984;2023-07-31T07:41:54;99235.19;;;29.69;38.03
55932;BME280;41837;55.700;37.984;2023-07-31T07:44:20;99231.44;;;29.70;38.73
55932;BME280;41837;55.700;37.984;2023-07-31T07:46:46;99230.72;;;29.41;38.11
55932;BME280;41837;55.700;37.984;2023-07-31T07:49:13;99238.66;;;29.63;38.57
55932;BME280;41837;55.700;37.984;2023-07-31T07:51:39;99234.81;;;29.85;37.97
55932;BME280;41837;55.700;37.984;2023-07-31T07:54:06;99224.47;;;29.34;37.96
55932;BME280;41837;55.700;37.984;2023-07-31T07:56:33;99228.81;;;29.97;37.64
55932;BME280;41837;55.700;37.984;2023-07-31T07:58:59;99233.84;;;29.38;37.81
55932;BME280;41837;55.700;37.984;2023-07-31T08:01:26;99238.16;;;30.07;37.09
55932;BME280;41837;55.700;37.984;2023-07-31T08:03:52;99234.06;;;29.43;36.60
55932;BME280;41837;55.700;37.984;2023-07-31T08:06:18;99231.34;;;29.01;36.55
55932;BME280;41837;55.700;37.984;2023-07-31T08:08:45;99225.94;;;29.36;35.66
55932;BME280;41837;55.700;37.984;2023-07-31T08:11:11;99229.75;;;29.55;37.51
55932;BME280;41837;55.700;37.984;2023-07-31T08:13:37;99229.97;;;29.61;35.56
55932;BME280;41837;55.700;37.984;2023-07-31T08:16:04;99227.84;;;29.49;38.42
55932;BME280;41837;55.700;37.984;2023-07-31T08:18:31;99231.28;;;29.85;36.86
55932;BME280;41837;55.700;37.984;2023-07-31T08:20:58;99228.44;;;30.00;36.49
55932;BME280;41837;55.700;37.984;2023-07-31T08:23:25;99229.69;;;29.07;38.23
55932;BME280;41837;55.700;37.984;2023-07-31T08:25:51;99234.19;;;29.28;38.91
55932;BME280;41837;55.700;37.984;2023-07-31T08:28:17;99235.81;;;28.88;38.54
55932;BME280;41837;55.700;37.984;2023-07-31T08:30:44;99232.38;;;28.22;38.26
55932;BME280;41837;55.700;37.984;2023-07-31T08:33:10;99241.94;;;27.88;38.04
55932;BME280;41837;55.700;37.984;2023-07-31T08:35:36;99245.88;;;27.86;38.82
55932;BME280;41837;55.700;37.984;2023-07-31T08:38:03;99241.59;;;28.35;38.21
55932;BME280;41837;55.700;37.984;2023-07-31T08:40:30;99234.41;;;27.92;39.40
55932;BME280;41837;55.700;37.984;2023-07-31T08:42:56;99238.53;;;27.95;39.33
55932;BME280;41837;55.700;37.984;2023-07-31T08:45:28;99241.34;;;27.71;40.36
55932;BME280;41837;55.700;37.984;2023-07-31T08:47:56;99239.81;;;27.62;38.64
55932;BME280;41837;55.700;37.984;2023-07-31T08:50:23;99241.06;;;27.45;40.34
55932;BME280;41837;55.700;37.984;2023-07-31T08:52:51;99244.03;;;27.71;38.92
55932;BME280;41837;55.700;37.984;2023-07-31T08:55:18;99233.81;;;27.97;39.15
55932;BME280;41837;55.700;37.984;2023-07-31T08:57:51;99240.38;;;28.16;39.24
55932;BME280;41837;55.700;37.984;2023-07-31T09:00:21;99243.28;;;28.14;39.80
55932;BME280;41837;55.700;37.984;2023-07-31T09:03:28;99250.41;;;27.19;40.52
55932;BME280;41837;55.700;37.984;2023-07-31T09:05:56;99254.19;;;26.95;42.02
55932;BME280;41837;55.700;37.984;2023-07-31T09:08:26;99258.53;;;26.43;41.48
55932;BME280;41837;55.700;37.984;2023-07-31T09:10:59;99242.63;;;27.39;40.15
55932;BME280;41837;55.700;37.984;2023-07-31T09:13:29;99248.25;;;27.59;40.68
55932;BME280;41837;55.700;37.984;2023-07-31T09:15:55;99237.44;;;27.52;39.60
55932;BME280;41837;55.700;37.984;2023-07-31T09:18:22;99237.91;;;27.93;39.95
55932;BME280;41837;55.700;37.984;2023-07-31T09:21:04;99235.31;;;28.27;42.15
55932;BME280;41837;55.700;37.984;2023-07-31T09:23:45;99243.94;;;27.43;39.57
55932;BME280;41837;55.700;37.984;2023-07-31T09:26:33;99245.22;;;27.84;41.59
55932;BME280;41837;55.700;37.984;2023-07-31T09:29:03;99239.22;;;27.45;40.71
55932;BME280;41837;55.700;37.984;2023-07-31T09:31:40;99240.13;;;27.89;40.58
55932;BME280;41837;55.700;37.984;2023-07-31T09:34:08;99246.19;;;27.61;39.77
55932;BME280;41837;55.700;37.984;2023-07-31T09:36:45;99254.09;;;26.88;43.89
55932;BME280;41837;55.700;37.984;2023-07-31T09:39:13;99253.53;;;26.40;43.45
55932;BME280;41837;55.700;37.984;2023-07-31T09:41:42;99252.81;;;27.14;42.24
55932;BME280;41837;55.700;37.984;2023-07-31T09:44:09;99245.78;;;27.13;41.04
55932;BME280;41837;55.700;37.984;2023-07-31T09:46:36;99245.41;;;27.46;41.80
55932;BME280;41837;55.700;37.984;2023-07-31T09:51:32;99245.97;;;25.66;41.11
55932;BME280;41837;55.700;37.984;2023-07-31T09:54:23;99256.50;;;25.67;43.72
55932;BME280;41837;55.700;37.984;2023-07-31T09:56:49;99251.75;;;26.09;43.87
55932;BME280;41837;55.700;37.984;2023-07-31T09:59:18;99253.66;;;26.23;42.96
55932;BME280;41837;55.700;37.984;2023-07-31T10:01:46;99248.56;;;26.52;42.65
55932;BME280;41837;55.700;37.984;2023-07-31T10:04:13;99246.88;;;26.36;39.18
55932;BME280;41837;55.700;37.984;2023-07-31T10:06:42;99244.84;;;26.38;40.16
55932;BME280;41837;55.700;37.984;2023-07-31T10:09:11;99248.19;;;27.23;40.96
55932;BME280;41837;55.700;37.984;2023-07-31T10:11:41;99248.81;;;26.65;41.99
55932;BME280;41837;55.700;37.984;2023-07-31T10:14:10;99256.59;;;26.52;44.02
55932;BME280;41837;55.700;37.984;2023-07-31T10:16:38;99243.28;;;27.26;40.45
55932;BME280;41837;55.700;37.984;2023-07-31T10:19:05;99241.25;;;27.28;40.18
55932;BME280;41837;55.700;37.984;2023-07-31T10:21:33;99250.44;;;27.70;39.15
55932;BME280;41837;55.700;37.984;2023-07-31T10:24:03;99246.69;;;27.65;40.99
55932;BME280;41837;55.700;37.984;2023-07-31T10:26:34;99242.09;;;27.80;40.88
55932;BME280;41837;55.700;37.984;2023-07-31T10:29:02;99239.47;;;27.50;42.44
55932;BME280;41837;55.700;37.984;2023-07-31T10:31:29;99238.41;;;27.30;41.30
55932;BME280;41837;55.700;37.984;2023-07-31T10:33:58;99248.13;;;26.02;43.64
55932;BME280;41837;55.700;37.984;2023-07-31T10:36:26;99252.69;;;25.62;44.92
55932;BME280;41837;55.700;37.984;2023-07-31T10:38:55;99246.09;;;25.41;45.84
55932;BME280;41837;55.700;37.984;2023-07-31T10:41:31;99243.56;;;25.79;46.27
55932;BME280;41837;55.700;37.984;2023-07-31T10:43:59;99244.53;;;25.55;45.14
55932;BME280;41837;55.700;37.984;2023-07-31T10:46:28;99242.81;;;25.62;45.39
55932;BME280;41837;55.700;37.984;2023-07-31T10:49:00;99246.75;;;25.43;46.05
55932;BME280;41837;55.700;37.984;2023-07-31T10:51:35;99242.34;;;25.59;44.68
55932;BME280;41837;55.700;37.984;2023-07-31T10:54:12;99242.94;;;26.23;44.28
55932;BME280;41837;55.700;37.984;2023-07-31T10:56:40;99235.69;;;26.09;44.27
55932;BME280;41837;55.700;37.984;2023-07-31T10:59:11;99238.31;;;25.86;43.12
55932;BME280;41837;55.700;37.984;2023-07-31T11:01:54;99236.91;;;25.36;44.44
55932;BME280;41837;55.700;37.984;2023-07-31T11:04:25;99232.75;;;25.33;44.98
55932;BME280;41837;55.700;37.984;2023-07-31T11:06:58;99229.00;;;25.82;43.50
55932;BME280;41837;55.700;37.984;2023-07-31T11:09:32;99231.38;;;26.00;44.89
55932;BME280;41837;55.700;37.984;2023-07-31T11:11:59;99225.44;;;26.36;42.35
55932;BME280;41837;55.700;37.984;2023-07-31T11:14:26;99226.72;;;26.02;43.23
55932;BME280;41837;55.700;37.984;2023-07-31T11:16:52;99225.53;;;25.73;44.75
55932;BME280;41837;55.700;37.984;2023-07-31T11:19:23;99227.66;;;25.78;46.30
55932;BME280;41837;55.700;37.984;2023-07-31T11:21:51;99234.03;;;25.45;46.84
55932;BME280;41837;55.700;37.984;2023-07-31T11:24:18;99240.44;;;25.36;46.81
55932;BME280;41837;55.700;37.984;2023-07-31T11:26:53;99234.59;;;25.24;47.65
55932;BME280;41837;55.700;37.984;2023-07-31T11:29:20;99231.03;;;25.40;48.12
55932;BME280;41837;55.700;37.984;2023-07-31T11:31:47;99229.75;;;25.36;48.14
55932;BME280;41837;55.700;37.984;2023-07-31T11:34:15;99221.41;;;25.23;47.79
55932;BME280;41837;55.700;37.984;2023-07-31T11:36:56;99232.63;;;25.10;47.91
55932;BME280;41837;55.700;37.984;2023-07-31T11:39:22;99222.19;;;24.92;47.20
55932;BME280;41837;55.700;37.984;2023-07-31T11:41:49;99227.22;;;24.79;47.57
55932;BME280;41837;55.700;37.984;2023-07-31T11:44:16;99226.44;;;24.62;49.02
55932;BME280;41837;55.700;37.984;2023-07-31T11:46:42;99231.63;;;24.55;49.15
55932;BME280;41837;55.700;37.984;2023-07-31T11:49:09;99239.44;;;24.48;50.60
55932;BME280;41837;55.700;37.984;2023-07-31T11:51:35;99237.59;;;24.49;49.94
55932;BME280;41837;55.700;37.984;2023-07-31T11:54:02;99238.78;;;24.46;51.97
55932;BME280;41837;55.700;37.984;2023-07-31T11:56:28;99243.78;;;24.25;51.05
55932;BME280;41837;55.700;37.984;2023-07-31T11:58:58;99245.13;;;24.20;53.25
55932;BME280;41837;55.700;37.984;2023-07-31T12:01:26;99242.97;;;24.24;51.60
55932;BME280;41837;55.700;37.984;2023-07-31T12:03:56;99247.09;;;24.18;51.09
55932;BME280;41837;55.700;37.984;2023-07-31T12:06:33;99235.09;;;24.31;51.39
55932;BME280;41837;55.700;37.984;2023-07-31T12:09:05;99242.63;;;24.68;50.52
55932;BME280;41837;55.700;37.984;2023-07-31T12:11:43;99244.09;;;25.43;47.41
55932;BME280;41837;55.700;37.984;2023-07-31T12:14:23;99242.25;;;25.75;48.36
55932;BME280;41837;55.700;37.984;2023-07-31T12:17:03;99245.19;;;25.88;47.87
55932;BME280;41837;55.700;37.984;2023-07-31T12:19:30;99248.72;;;25.58;46.07
55932;BME280;41837;55.700;37.984;2023-07-31T12:22:01;99239.97;;;25.24;47.05
55932;BME280;41837;55.700;37.984;2023-07-31T12:24:27;99246.06;;;25.02;47.62
55932;BME280;41837;55.700;37.984;2023-07-31T12:26:54;99238.38;;;24.99;48.52
55932;BME280;41837;55.700;37.984;2023-07-31T12:29:21;99243.44;;;24.85;49.00
55932;BME280;41837;55.700;37.984;2023-07-31T12:31:47;99244.72;;;24.98;52.21
55932;BME280;41837;55.700;37.984;2023-07-31T12:34:18;99246.09;;;24.93;49.04
55932;BME280;41837;55.700;37.984;2023-07-31T12:36:46;99245.22;;;25.01;48.79
55932;BME280;41837;55.700;37.984;2023-07-31T12:39:14;99250.56;;;25.49;48.16
55932;BME280;41837;55.700;37.984;2023-07-31T12:41:41;99245.31;;;25.64;46.61
55932;BME280;41837;55.700;37.984;2023-07-31T12:44:07;99247.84;;;25.26;48.15
55932;BME280;41837;55.700;37.984;2023-07-31T12:46:33;99244.41;;;24.92;49.33
55932;BME280;41837;55.700;37.984;2023-07-31T12:48:59;99238.91;;;24.77;49.71
55932;BME280;41837;55.700;37.984;2023-07-31T12:51:25;99252.63;;;24.74;50.91
55932;BME280;41837;55.700;37.984;2023-07-31T12:53:51;99253.66;;;24.65;51.78
55932;BME280;41837;55.700;37.984;2023-07-31T12:56:17;99247.66;;;24.55;50.84
55932;BME280;41837;55.700;37.984;2023-07-31T12:58:43;99262.16;;;24.44;52.13
55932;BME280;41837;55.700;37.984;2023-07-31T13:01:09;99262.31;;;24.18;51.45
55932;BME280;41837;55.700;37.984;2023-07-31T13:03:36;99259.47;;;24.19;52.45